createdAt,value
2018-09-15T00:01:57.953Z,14.60
2018-09-15T00:04:26.334Z,13.53
2018-09-15T00:06:54.710Z,14.30
2018-09-15T00:09:23.025Z,13.10
2018-09-15T00:11:51.478Z,13.20
2018-09-15T00:14:19.848Z,13.70
2018-09-15T00:16:48.285Z,13.07
2018-09-15T00:19:16.601Z,13.63
2018-09-15T00:21:44.987Z,14.20
2018-09-15T00:24:13.416Z,13.93
2018-09-15T00:26:41.932Z,12.40
2018-09-15T00:29:10.312Z,13.10
2018-09-15T00:31:38.716Z,12.53
2018-09-15T00:34:07.117Z,12.80
2018-09-15T00:36:35.554Z,14.60
2018-09-15T00:39:05.624Z,13.30
2018-09-15T00:41:33.987Z,12.70
2018-09-15T00:44:02.318Z,13.90
2018-09-15T00:46:30.746Z,14.67
2018-09-15T00:48:59.242Z,15.07
2018-09-15T00:51:27.618Z,14.30
2018-09-15T00:53:56.134Z,16.80
2018-09-15T00:56:24.505Z,15.73
2018-09-15T00:58:52.923Z,18.00
2018-09-15T01:01:21.195Z,18.37
2018-09-15T01:03:49.697Z,20.37
2018-09-15T01:06:18.051Z,18.07
2018-09-15T01:08:46.462Z,20.57
2018-09-15T01:11:14.947Z,20.43
2018-09-15T01:13:43.239Z,20.77
2018-09-15T01:16:11.643Z,22.40
2018-09-15T01:18:39.998Z,20.07
2018-09-15T01:21:08.594Z,21.73
2018-09-15T01:23:36.967Z,22.93
2018-09-15T01:26:05.391Z,22.43
2018-09-15T01:28:33.702Z,23.47
2018-09-15T01:31:02.027Z,19.90
2018-09-15T01:33:30.410Z,20.30
2018-09-15T01:35:58.794Z,21.50
2018-09-15T01:38:27.193Z,20.67
2018-09-15T01:40:55.532Z,19.87
2018-09-15T01:43:23.863Z,19.70
2018-09-15T01:45:52.221Z,20.00
2018-09-15T01:48:20.548Z,19.27
2018-09-15T01:50:48.923Z,18.77
2018-09-15T01:53:17.267Z,17.83
2018-09-15T01:55:45.605Z,17.80
2018-09-15T01:58:13.901Z,16.90
2018-09-15T02:00:42.374Z,17.00
2018-09-15T02:03:10.748Z,16.53
2018-09-15T02:05:39.090Z,17.97
2018-09-15T02:08:07.470Z,21.50
2018-09-15T02:10:35.811Z,18.07
2018-09-15T02:13:04.206Z,18.03
2018-09-15T02:15:32.578Z,17.50
2018-09-15T02:18:00.948Z,18.30
2018-09-15T02:20:29.465Z,18.27
2018-09-15T02:22:57.870Z,18.07
2018-09-15T02:25:26.198Z,18.60
2018-09-15T02:27:54.530Z,18.70
2018-09-15T02:30:22.880Z,19.13
2018-09-15T02:32:51.188Z,19.10
2018-09-15T02:35:19.547Z,18.70
2018-09-15T02:37:47.862Z,19.13
2018-09-15T02:40:16.283Z,19.23
2018-09-15T02:42:44.570Z,18.23
2018-09-15T02:45:12.907Z,19.40
2018-09-15T02:47:41.231Z,20.00
2018-09-15T02:50:09.635Z,20.77
2018-09-15T02:52:37.974Z,19.60
2018-09-15T02:55:06.353Z,19.37
2018-09-15T02:57:34.993Z,18.73
2018-09-15T03:02:42.744Z,18.83
2018-09-15T03:05:11.140Z,18.90
2018-09-15T03:07:39.545Z,18.47
2018-09-15T03:10:07.954Z,17.80
2018-09-15T03:12:36.267Z,17.60
2018-09-15T03:15:04.755Z,19.50
2018-09-15T03:17:33.103Z,18.50
2018-09-15T03:20:01.415Z,17.73
2018-09-15T03:22:29.834Z,17.50
2018-09-15T03:24:58.235Z,16.67
2018-09-15T03:27:26.556Z,18.37
2018-09-15T03:29:54.928Z,16.93
2018-09-15T03:32:23.318Z,16.60
2018-09-15T03:34:51.740Z,16.27
2018-09-15T03:37:20.154Z,16.80
2018-09-15T03:39:48.526Z,15.97
2018-09-15T03:42:16.892Z,16.10
2018-09-15T03:44:45.311Z,16.37
2018-09-15T03:47:13.679Z,17.00
2018-09-15T03:49:42.046Z,17.60
2018-09-15T03:52:10.454Z,17.80
2018-09-15T03:54:38.813Z,17.00
2018-09-15T03:57:07.238Z,18.80
2018-09-15T03:59:35.643Z,20.30
2018-09-15T04:02:04.055Z,18.37
2018-09-15T04:04:32.413Z,17.63
2018-09-15T04:07:00.857Z,17.93
2018-09-15T04:09:29.259Z,17.40
2018-09-15T04:11:57.703Z,17.90
2018-09-15T04:14:26.103Z,18.63
2018-09-15T04:16:54.680Z,19.30
2018-09-15T04:19:23.063Z,17.30
2018-09-15T04:21:51.610Z,19.67
2018-09-15T04:24:20.016Z,17.33
2018-09-15T04:26:48.441Z,19.37
2018-09-15T04:29:16.828Z,17.40
2018-09-15T04:31:45.253Z,18.00
2018-09-15T04:34:13.651Z,18.07
2018-09-15T04:36:42.030Z,18.10
2018-09-15T04:39:11.971Z,19.50
2018-09-15T04:41:40.736Z,18.20
2018-09-15T04:44:08.992Z,18.77
2018-09-15T04:46:37.418Z,18.63
2018-09-15T04:49:05.904Z,19.03
2018-09-15T04:51:34.343Z,18.87
2018-09-15T04:54:02.662Z,17.57
2018-09-15T04:56:31.027Z,17.87
2018-09-15T04:58:59.484Z,18.47
2018-09-15T05:01:27.850Z,17.40
2018-09-15T05:03:56.297Z,16.47
2018-09-15T05:06:24.749Z,16.40
2018-09-15T05:08:53.234Z,16.67
2018-09-15T05:11:21.807Z,15.90
2018-09-15T05:13:50.351Z,15.97
2018-09-15T05:16:18.755Z,14.80
2018-09-15T05:18:47.326Z,15.60
2018-09-15T05:21:15.737Z,15.30
2018-09-15T05:23:44.179Z,14.70
2018-09-15T05:26:12.541Z,15.70
2018-09-15T05:28:40.914Z,14.50
2018-09-15T05:31:09.355Z,15.63
2018-09-15T05:33:37.730Z,14.90
2018-09-15T05:36:06.139Z,16.00
2018-09-15T05:38:34.523Z,13.23
2018-09-15T05:41:02.955Z,13.40
2018-09-15T05:43:31.381Z,13.30
2018-09-15T05:45:59.777Z,12.03
2018-09-15T05:48:28.224Z,10.33
2018-09-15T05:50:56.616Z,9.90
2018-09-15T05:53:25.035Z,9.40
2018-09-15T05:55:53.585Z,9.10
2018-09-15T05:58:21.867Z,8.17
2018-09-15T06:00:50.238Z,7.60
2018-09-15T06:03:18.618Z,7.20
2018-09-15T06:05:47.015Z,6.00
2018-09-15T06:08:15.378Z,5.70
2018-09-15T06:10:44.043Z,5.60
2018-09-15T06:13:12.339Z,5.07
2018-09-15T06:15:40.747Z,5.97
2018-09-15T06:18:09.186Z,5.50
2018-09-15T06:20:37.603Z,6.00
2018-09-15T06:23:06.123Z,5.60
2018-09-15T06:25:34.543Z,4.90
2018-09-15T06:28:02.966Z,4.87
2018-09-15T06:30:31.358Z,4.70
2018-09-15T06:32:59.762Z,3.50
2018-09-15T06:35:28.170Z,4.30
2018-09-15T06:37:56.691Z,3.73
2018-09-15T06:40:25.150Z,4.00
2018-09-15T06:42:53.539Z,3.53
2018-09-15T06:45:21.983Z,3.50
2018-09-15T06:47:50.355Z,3.60
2018-09-15T06:50:18.760Z,3.73
2018-09-15T06:52:47.162Z,3.97
2018-09-15T06:55:15.700Z,3.80
2018-09-15T06:57:44.082Z,2.73
2018-09-15T07:00:12.523Z,3.83
2018-09-15T07:02:40.950Z,4.33
2018-09-15T07:05:09.374Z,3.70
2018-09-15T07:07:37.776Z,3.30
2018-09-15T07:10:06.190Z,3.23
2018-09-15T07:12:34.647Z,3.77
2018-09-15T07:15:03.111Z,3.70
2018-09-15T07:17:31.495Z,3.60
2018-09-15T07:19:59.925Z,4.00
2018-09-15T07:22:28.308Z,3.97
2018-09-15T07:24:56.734Z,3.50
2018-09-15T07:27:26.081Z,3.90
2018-09-15T07:29:54.531Z,4.07
2018-09-15T07:32:22.936Z,4.30
2018-09-15T07:34:51.407Z,4.17
2018-09-15T07:37:19.782Z,4.93
2018-09-15T07:39:48.286Z,3.70
2018-09-15T07:42:16.687Z,4.37
2018-09-15T07:44:45.228Z,4.77
2018-09-15T07:47:13.538Z,4.73
2018-09-15T07:49:41.951Z,5.10
2018-09-15T07:52:10.355Z,5.00
2018-09-15T07:54:38.729Z,4.90
2018-09-15T07:57:07.086Z,4.97
2018-09-15T07:59:35.462Z,4.90
2018-09-15T08:02:08.081Z,5.63
2018-09-15T08:04:36.488Z,5.90
2018-09-15T08:07:05.035Z,5.27
2018-09-15T08:09:33.461Z,5.70
2018-09-15T08:12:01.858Z,5.27
2018-09-15T08:14:30.239Z,5.43
2018-09-15T08:16:58.655Z,4.60
2018-09-15T08:19:27.064Z,5.17
2018-09-15T08:21:55.544Z,4.77
2018-09-15T08:24:24.973Z,5.60
2018-09-15T08:26:53.476Z,4.60
2018-09-15T08:29:22.155Z,4.80
2018-09-15T08:31:50.902Z,4.03
2018-09-15T08:34:19.299Z,4.57
2018-09-15T08:36:47.690Z,4.57
2018-09-15T08:39:16.074Z,4.13
2018-09-15T08:41:44.491Z,3.27
2018-09-15T08:44:12.884Z,3.60
2018-09-15T08:46:41.291Z,4.17
2018-09-15T08:49:10.743Z,4.20
2018-09-15T08:51:39.142Z,4.43
2018-09-15T08:54:07.533Z,4.40
2018-09-15T08:56:35.997Z,3.60
2018-09-15T08:59:04.405Z,4.10
2018-09-15T09:01:32.716Z,4.50
2018-09-15T09:04:01.152Z,2.90
2018-09-15T09:06:29.509Z,3.40
2018-09-15T09:08:57.886Z,3.40
2018-09-15T09:11:26.311Z,3.50
2018-09-15T09:13:54.725Z,3.33
2018-09-15T09:16:23.134Z,3.67
2018-09-15T09:18:51.575Z,3.73
2018-09-15T09:21:20.213Z,3.17
2018-09-15T09:23:48.645Z,2.70
2018-09-15T09:26:17.170Z,2.87
2018-09-15T09:28:45.514Z,2.97
2018-09-15T09:31:13.951Z,3.70
2018-09-15T09:33:42.399Z,3.77
2018-09-15T09:36:10.970Z,3.50
2018-09-15T09:38:39.447Z,4.07
2018-09-15T09:41:08.935Z,3.80
2018-09-15T09:43:37.365Z,4.13
2018-09-15T09:46:05.765Z,3.80
2018-09-15T09:48:34.166Z,3.67
2018-09-15T09:51:02.561Z,3.77
2018-09-15T09:53:30.975Z,3.50
2018-09-15T09:55:59.391Z,3.87
2018-09-15T09:58:27.847Z,3.87
2018-09-15T10:00:58.075Z,4.03
2018-09-15T10:03:27.530Z,4.50
2018-09-15T10:05:55.985Z,4.77
2018-09-15T10:08:24.407Z,3.73
2018-09-15T10:10:52.800Z,4.17
2018-09-15T10:13:21.205Z,4.80
2018-09-15T10:15:49.624Z,4.60
2018-09-15T10:18:17.996Z,4.27
2018-09-15T10:20:46.379Z,4.17
2018-09-15T10:23:14.841Z,3.80
2018-09-15T10:25:43.235Z,3.43
2018-09-15T10:28:11.615Z,3.00
2018-09-15T10:30:40.027Z,3.83
2018-09-15T10:33:08.483Z,3.43
2018-09-15T10:35:36.902Z,3.30
2018-09-15T10:38:05.316Z,3.07
2018-09-15T10:40:33.849Z,2.30
2018-09-15T10:43:02.156Z,1.87
2018-09-15T10:45:30.621Z,2.67
2018-09-15T10:47:59.035Z,2.90
2018-09-15T10:50:27.489Z,2.50
2018-09-15T10:52:56.333Z,3.40
2018-09-15T10:55:24.818Z,2.63
2018-09-15T10:57:53.187Z,2.60
2018-09-15T11:00:21.757Z,2.60
2018-09-15T11:02:50.157Z,2.70
2018-09-15T11:05:18.587Z,3.57
2018-09-15T11:07:47.115Z,3.00
2018-09-15T11:10:15.496Z,3.33
2018-09-15T11:12:43.886Z,3.00
2018-09-15T11:15:12.269Z,2.80
2018-09-15T11:17:40.700Z,2.97
2018-09-15T11:20:09.108Z,3.10
2018-09-15T11:22:37.484Z,2.90
2018-09-15T11:25:05.870Z,3.83
2018-09-15T11:27:34.261Z,3.80
2018-09-15T11:30:02.619Z,3.27
2018-09-15T11:32:31.059Z,3.23
2018-09-15T11:34:59.445Z,3.20
2018-09-15T11:37:28.028Z,2.97
2018-09-15T11:39:56.422Z,4.00
2018-09-15T11:42:24.911Z,3.10
2018-09-15T11:44:53.359Z,3.70
2018-09-15T11:47:21.799Z,3.73
2018-09-15T11:49:50.217Z,3.20
2018-09-15T11:52:18.671Z,3.40
2018-09-15T11:54:47.116Z,3.17
2018-09-15T11:57:15.470Z,3.47
2018-09-15T11:59:43.898Z,3.30
2018-09-15T12:02:12.243Z,3.50
2018-09-15T12:04:40.675Z,3.00
2018-09-15T12:07:08.964Z,2.97
2018-09-15T12:09:37.440Z,3.70
2018-09-15T12:12:05.974Z,3.73
2018-09-15T12:14:34.400Z,4.30
2018-09-15T12:17:02.892Z,4.00
2018-09-15T12:19:31.410Z,4.40
2018-09-15T12:21:59.815Z,3.30
2018-09-15T12:24:28.242Z,3.77
2018-09-15T12:26:56.635Z,3.83
2018-09-15T12:29:25.174Z,4.63
2018-09-15T12:31:53.641Z,4.13
2018-09-15T12:34:22.054Z,4.53
2018-09-15T12:37:00.620Z,3.27
2018-09-15T12:42:06.034Z,3.60
2018-09-15T12:44:34.307Z,3.83
2018-09-15T12:47:02.586Z,4.00
2018-09-15T12:49:30.895Z,2.53
2018-09-15T12:51:59.304Z,2.90
2018-09-15T12:54:27.698Z,2.63
2018-09-15T12:56:56.120Z,3.43
2018-09-15T12:59:24.513Z,2.90
2018-09-15T13:01:52.987Z,2.83
2018-09-15T13:04:21.357Z,3.57
2018-09-15T13:06:50.061Z,3.20
2018-09-15T13:09:18.370Z,3.33
2018-09-15T13:11:46.746Z,3.43
2018-09-15T13:14:15.151Z,3.50
2018-09-15T13:16:43.578Z,3.20
2018-09-15T13:19:12.022Z,3.63
2018-09-15T13:21:40.439Z,3.27
2018-09-15T13:24:08.850Z,3.53
2018-09-15T13:26:37.255Z,3.40
2018-09-15T13:29:05.814Z,3.73
2018-09-15T13:31:34.314Z,4.67
2018-09-15T13:34:02.853Z,3.87
2018-09-15T13:36:31.249Z,3.03
2018-09-15T13:38:59.839Z,3.50
2018-09-15T13:41:28.257Z,3.00
2018-09-15T13:43:56.697Z,3.53
2018-09-15T13:46:25.078Z,3.07
2018-09-15T13:48:53.532Z,3.20
2018-09-15T13:51:21.883Z,3.67
2018-09-15T13:53:50.275Z,3.50
2018-09-15T13:56:18.690Z,3.03
2018-09-15T13:58:47.038Z,3.17
2018-09-15T14:01:15.383Z,3.30
2018-09-15T14:03:43.761Z,3.90
2018-09-15T14:06:12.180Z,3.20
2018-09-15T14:08:40.754Z,3.70
2018-09-15T14:11:09.136Z,3.87
2018-09-15T14:13:37.519Z,4.33
2018-09-15T14:16:05.950Z,4.00
2018-09-15T14:18:34.338Z,3.03
2018-09-15T14:21:02.785Z,2.80
2018-09-15T14:23:31.176Z,2.83
2018-09-15T14:25:59.601Z,2.90
2018-09-15T14:28:28.013Z,3.80
2018-09-15T14:30:56.411Z,3.20
2018-09-15T14:33:24.833Z,3.90
2018-09-15T14:35:53.190Z,2.90
2018-09-15T14:38:21.679Z,2.60
2018-09-15T14:40:50.189Z,2.50
2018-09-15T14:43:18.619Z,2.20
2018-09-15T14:45:47.078Z,1.87
2018-09-15T14:48:15.588Z,2.20
2018-09-15T14:50:43.938Z,2.30
2018-09-15T14:53:12.361Z,2.23
2018-09-15T14:55:40.802Z,2.13
2018-09-15T14:58:09.242Z,2.43
2018-09-15T15:00:37.666Z,2.20
2018-09-15T15:03:07.887Z,2.00
2018-09-15T15:05:36.231Z,2.10
2018-09-15T15:08:04.852Z,2.50
2018-09-15T15:10:33.297Z,2.17
2018-09-15T15:13:01.671Z,2.37
2018-09-15T15:15:30.060Z,2.30
2018-09-15T15:17:58.459Z,2.60
2018-09-15T15:20:26.862Z,2.70
2018-09-15T15:22:55.274Z,2.83
2018-09-15T15:25:23.650Z,2.87
2018-09-15T15:27:52.011Z,2.60
2018-09-15T15:30:20.450Z,3.23
2018-09-15T15:32:48.898Z,2.83
2018-09-15T15:35:23.891Z,2.80
2018-09-15T15:37:52.115Z,2.87
2018-09-15T15:40:20.438Z,2.63
2018-09-15T15:42:48.738Z,3.20
2018-09-15T15:45:17.047Z,2.77
2018-09-15T15:47:45.361Z,2.90
2018-09-15T15:50:13.700Z,2.60
2018-09-15T15:52:41.983Z,2.70
2018-09-15T15:55:10.270Z,3.23
2018-09-15T15:57:38.548Z,2.70
2018-09-15T16:00:07.093Z,2.80
2018-09-15T16:02:35.614Z,2.67
2018-09-15T16:05:03.952Z,3.00
2018-09-15T16:07:32.348Z,3.60
2018-09-15T16:10:00.658Z,3.70
2018-09-15T16:12:28.991Z,3.40
2018-09-15T16:14:57.277Z,3.63
2018-09-15T16:17:25.535Z,3.37
2018-09-15T16:19:53.805Z,3.40
2018-09-15T16:22:22.145Z,3.70
2018-09-15T16:24:50.444Z,2.90
2018-09-15T16:27:18.694Z,3.30
2018-09-15T16:29:46.963Z,3.50
2018-09-15T16:32:15.238Z,3.30
2018-09-15T16:34:43.514Z,3.27
2018-09-15T16:37:11.800Z,3.70
2018-09-15T16:39:40.064Z,2.50
2018-09-15T16:42:08.328Z,2.80
2018-09-15T16:44:36.696Z,3.73
2018-09-15T16:47:05.295Z,3.13
2018-09-15T16:49:33.686Z,3.63
2018-09-15T16:52:02.058Z,3.80
2018-09-15T16:54:30.392Z,3.17
2018-09-15T16:56:58.846Z,4.10
2018-09-15T16:59:27.131Z,4.83
2018-09-15T17:01:55.534Z,4.20
2018-09-15T17:04:23.951Z,4.23
2018-09-15T17:06:52.302Z,4.97
2018-09-15T17:09:20.698Z,4.40
2018-09-15T17:11:49.111Z,4.90
2018-09-15T17:14:17.470Z,4.30
2018-09-15T17:16:45.976Z,6.30
2018-09-15T17:19:14.266Z,5.00
2018-09-15T17:21:42.667Z,4.80
2018-09-15T17:24:11.048Z,5.00
2018-09-15T17:26:39.512Z,5.67
2018-09-15T17:29:07.915Z,5.40
2018-09-15T17:31:36.324Z,5.30
2018-09-15T17:34:04.693Z,6.10
2018-09-15T17:36:33.051Z,6.07
2018-09-15T17:39:01.415Z,6.47
2018-09-15T17:41:29.774Z,6.43
2018-09-15T17:43:58.159Z,6.90
2018-09-15T17:46:26.524Z,6.83
2018-09-15T17:48:54.956Z,6.63
2018-09-15T17:51:23.337Z,6.70
2018-09-15T17:53:51.740Z,6.40
2018-09-15T17:56:20.267Z,6.40
2018-09-15T17:58:48.643Z,6.10
2018-09-15T18:01:17.012Z,5.60
2018-09-15T18:03:45.400Z,6.20
2018-09-15T18:06:13.890Z,5.80
2018-09-15T18:08:42.250Z,5.70
2018-09-15T18:11:10.644Z,5.90
2018-09-15T18:13:39.056Z,6.07
2018-09-15T18:16:07.506Z,7.40
2018-09-15T18:18:35.887Z,6.53
2018-09-15T18:21:04.303Z,6.70
2018-09-15T18:23:32.774Z,6.73
2018-09-15T18:26:01.167Z,7.00
2018-09-15T18:28:29.524Z,6.47
2018-09-15T18:30:57.919Z,8.47
2018-09-15T18:33:26.316Z,7.47
2018-09-15T18:35:54.743Z,6.90
2018-09-15T18:38:23.127Z,7.33
2018-09-15T18:40:51.498Z,7.47
2018-09-15T18:43:19.905Z,7.27
2018-09-15T18:45:48.247Z,7.33
2018-09-15T18:48:16.636Z,8.10
2018-09-15T18:50:45.086Z,7.27
2018-09-15T18:53:13.411Z,7.40
2018-09-15T18:55:41.836Z,6.70
2018-09-15T18:58:10.261Z,7.43
2018-09-15T19:00:38.579Z,8.13
2018-09-15T19:03:06.993Z,8.00
2018-09-15T19:05:35.337Z,7.53
2018-09-15T19:08:03.711Z,7.70
2018-09-15T19:10:32.107Z,7.60
2018-09-15T19:13:00.587Z,8.30
2018-09-15T19:15:28.980Z,8.23
2018-09-15T19:17:57.342Z,8.17
2018-09-15T19:20:25.790Z,7.77
2018-09-15T19:22:54.127Z,8.00
2018-09-15T19:25:22.547Z,7.93
2018-09-15T19:27:50.928Z,7.40
2018-09-15T19:30:19.388Z,7.83
2018-09-15T19:32:47.808Z,8.17
2018-09-15T19:35:16.190Z,7.83
2018-09-15T19:37:44.619Z,7.97
2018-09-15T19:40:12.989Z,7.40
2018-09-15T19:42:41.328Z,7.80
2018-09-15T19:45:09.731Z,7.83
2018-09-15T19:47:38.028Z,7.90
2018-09-15T19:50:06.418Z,7.70
2018-09-15T19:52:34.941Z,8.00
2018-09-15T19:55:03.311Z,7.80
2018-09-15T19:57:32.415Z,8.17
2018-09-15T20:00:00.823Z,7.93
2018-09-15T20:02:29.249Z,8.30
2018-09-15T20:04:57.674Z,9.03
2018-09-15T20:07:26.004Z,9.23
2018-09-15T20:09:54.368Z,9.40
2018-09-15T20:12:22.741Z,8.17
2018-09-15T20:14:51.095Z,8.80
2018-09-15T20:17:18.344Z,9.40
2018-09-15T20:19:45.594Z,9.63
2018-09-15T20:22:14.122Z,8.63
2018-09-15T20:24:42.474Z,9.07
2018-09-15T20:27:10.831Z,8.30
2018-09-15T20:29:39.218Z,8.87
2018-09-15T20:32:07.580Z,8.33
2018-09-15T20:34:36.296Z,7.80
2018-09-15T20:37:04.635Z,8.63
2018-09-15T20:39:32.994Z,8.30
2018-09-15T20:42:01.378Z,8.63
2018-09-15T20:44:29.736Z,8.87
2018-09-15T20:46:58.075Z,8.00
2018-09-15T20:49:26.435Z,8.73
2018-09-15T20:51:54.795Z,8.70
2018-09-15T20:54:23.288Z,9.57
2018-09-15T20:56:51.672Z,8.80
2018-09-15T20:59:20.086Z,9.37
2018-09-15T21:01:48.438Z,8.93
2018-09-15T21:04:16.814Z,8.70
2018-09-15T21:06:45.150Z,9.30
2018-09-15T21:09:13.502Z,9.60
2018-09-15T21:11:41.845Z,8.50
2018-09-15T21:14:10.237Z,8.90
2018-09-15T21:16:38.642Z,8.73
2018-09-15T21:19:07.029Z,8.30
2018-09-15T21:21:35.427Z,9.17
2018-09-15T21:24:03.802Z,8.10
2018-09-15T21:26:32.165Z,9.13
2018-09-15T21:29:00.574Z,8.90
2018-09-15T21:31:28.915Z,8.70
2018-09-15T21:33:57.369Z,10.00
2018-09-15T21:36:25.777Z,8.70
2018-09-15T21:38:54.114Z,9.67
2018-09-15T21:41:22.443Z,8.40
2018-09-15T21:43:50.785Z,9.20
2018-09-15T21:46:19.113Z,8.70
2018-09-15T21:48:47.502Z,9.70
2018-09-15T21:51:15.940Z,9.10
2018-09-15T21:53:44.417Z,9.20
2018-09-15T21:56:12.738Z,8.43
2018-09-15T21:58:41.132Z,8.97
2018-09-15T22:01:09.405Z,9.67
2018-09-15T22:03:43.130Z,9.80
2018-09-15T22:06:11.515Z,8.20
2018-09-15T22:08:39.854Z,9.00
2018-09-15T22:11:08.186Z,9.10
2018-09-15T22:13:36.614Z,8.70
2018-09-15T22:16:05.026Z,9.63
2018-09-15T22:18:33.319Z,9.20
2018-09-15T22:21:01.710Z,8.97
2018-09-15T22:23:30.065Z,9.57
2018-09-15T22:25:58.655Z,10.03
2018-09-15T22:28:27.045Z,10.43
2018-09-15T22:30:56.167Z,9.90
2018-09-15T22:33:24.561Z,9.57
2018-09-15T22:35:52.914Z,10.07
2018-09-15T22:38:21.304Z,10.60
2018-09-15T22:40:50.991Z,10.80
2018-09-15T22:43:19.276Z,11.20
2018-09-15T22:45:47.913Z,11.77
2018-09-15T22:48:17.151Z,11.20
2018-09-15T22:50:45.571Z,11.07
2018-09-15T22:53:14.702Z,11.07
2018-09-15T22:55:43.124Z,12.00
2018-09-15T22:58:11.537Z,12.97
2018-09-15T23:00:39.942Z,11.17
2018-09-15T23:03:08.333Z,11.83
2018-09-15T23:05:36.785Z,10.90
2018-09-15T23:08:05.888Z,11.90
2018-09-15T23:10:34.235Z,11.20
2018-09-15T23:13:03.364Z,12.07
2018-09-15T23:15:32.440Z,13.63
2018-09-15T23:18:01.681Z,14.57
2018-09-15T23:20:30.937Z,13.80
2018-09-15T23:22:59.479Z,14.70
2018-09-15T23:25:27.911Z,14.17
2018-09-15T23:27:56.434Z,15.87
2018-09-15T23:30:24.825Z,16.13
2018-09-15T23:32:53.248Z,16.33
2018-09-15T23:35:28.764Z,15.73
2018-09-15T23:37:57.102Z,17.07
2018-09-15T23:40:25.423Z,15.33
2018-09-15T23:42:53.674Z,16.10
2018-09-15T23:45:22.024Z,15.20
2018-09-15T23:47:50.373Z,13.53
2018-09-15T23:50:18.641Z,15.57
2018-09-15T23:52:46.936Z,14.23
2018-09-15T23:55:15.207Z,15.10
2018-09-15T23:57:43.498Z,14.63
